Time;durP1;ratioP1;P1;durP2;ratioP2;P2;SDS_P1;SDS_P2;PMS_P1;PMS_P2;Temp;Humidity;BMP_temperature;BMP_pressure;BME280_temperature;BME280_humidity;BME280_pressure;Samples;Min_cycle;Max_cycle;Signal;HPM_P1;HPM_P2
2022/07/11 00:01:12;;;;;;;;;2.33;2.00;;;;;22.70;43.66;101787.53;4979639;28;45584;-65
2022/07/11 00:03:37;;;;;;;;;2.00;2.00;;;;;22.85;44.47;101804.56;4979672;28;45460;-65
2022/07/11 00:06:03;;;;;;;;;2.00;2.00;;;;;22.68;44.53;101789.63;4978908;28;46427;-66
2022/07/11 00:08:28;;;;;;;;;2.00;2.00;;;;;22.80;44.36;101815.13;4979020;28;45207;-65
2022/07/11 00:10:54;;;;;;;;;2.33;2.33;;;;;21.91;44.40;101657.72;4979205;28;45490;-65
2022/07/11 00:13:19;;;;;;;;;2.00;2.00;;;;;22.28;44.01;101724.28;4979151;28;45292;-65
2022/07/11 00:15:44;;;;;;;;;2.00;2.00;;;;;22.83;44.18;101819.38;4978613;28;47825;-67
2022/07/11 00:18:10;;;;;;;;;2.00;2.00;;;;;22.73;44.10;101798.81;4977590;28;46175;-66
2022/07/11 00:20:35;;;;;;;;;1.00;1.00;;;;;22.69;44.06;101800.25;4995147;28;45233;-65
2022/07/11 00:23:01;;;;;;;;;3.67;3.00;;;;;22.68;44.69;101811.28;4998936;28;45173;-67
2022/07/11 00:25:26;;;;;;;;;2.67;1.33;;;;;22.03;43.93;101707.63;4998585;28;46337;-67
2022/07/11 00:27:51;;;;;;;;;2.67;2.67;;;;;22.70;44.64;101815.47;4997317;28;45317;-66
2022/07/11 00:30:17;;;;;;;;;2.00;2.00;;;;;22.66;44.68;101811.50;4998724;28;45335;-67
2022/07/11 00:32:43;;;;;;;;;2.00;2.00;;;;;22.02;44.24;101707.78;4998795;28;45344;-66
2022/07/11 00:35:08;;;;;;;;;2.00;2.00;;;;;22.63;44.60;101817.31;4997295;28;47219;-67
2022/07/11 00:37:34;;;;;;;;;2.00;2.00;;;;;22.57;44.42;101800.97;4998405;28;45268;-66
2022/07/11 00:39:59;;;;;;;;;1.67;1.67;;;;;22.25;44.40;101748.22;4998497;28;45403;-66
2022/07/11 00:42:25;;;;;;;;;0.67;0.67;;;;;22.65;44.33;101825.25;4998577;28;45186;-66
2022/07/11 00:44:50;;;;;;;;;3.33;2.33;;;;;22.65;44.57;101811.69;4998296;28;46074;-66
2022/07/11 00:47:16;;;;;;;;;2.00;2.00;;;;;22.67;44.49;101812.34;4998186;28;45318;-67
2022/07/11 00:49:41;;;;;;;;;1.00;1.00;;;;;22.44;44.14;101766.50;4990058;28;45283;-66
2022/07/11 00:52:09;;;;;;;;;1.00;1.00;;;;;22.64;44.27;101805.44;4997965;28;45435;-67
2022/07/11 00:54:34;;;;;;;;;1.00;1.00;;;;;22.65;44.01;101795.44;4998277;28;45638;-66
2022/07/11 00:57:00;;;;;;;;;2.00;2.00;;;;;22.59;44.25;101794.34;4998234;28;45309;-67
2022/07/11 00:59:27;;;;;;;;;2.33;1.00;;;;;22.66;44.41;101789.81;4998342;28;45371;-66
2022/07/11 01:01:52;;;;;;;;;2.00;2.00;;;;;22.56;44.66;101775.75;4998374;28;45321;-66
2022/07/11 01:04:18;;;;;;;;;3.00;3.00;;;;;22.38;44.42;101734.78;4998036;28;45887;-66
2022/07/11 01:06:43;;;;;;;;;3.00;2.33;;;;;22.61;44.56;101796.84;4996725;28;45779;-66
2022/07/11 01:09:09;;;;;;;;;1.33;1.33;;;;;22.50;44.81;101778.44;4998074;28;45255;-66
2022/07/11 01:11:35;;;;;;;;;2.00;2.00;;;;;22.39;44.78;101768.97;4998382;28;45329;-68
2022/07/11 01:14:00;;;;;;;;;2.00;2.00;;;;;21.93;44.79;101698.13;4996611;28;47116;-65
2022/07/11 01:16:25;;;;;;;;;2.00;2.00;;;;;22.30;44.95;101764.72;4997627;28;45419;-66
2022/07/11 01:18:53;;;;;;;;;1.33;1.33;;;;;22.38;44.99;101783.53;4993404;28;45608;-66
2022/07/11 01:21:31;;;;;;;;;2.00;2.00;;;;;22.45;44.76;101789.88;5009981;28;45565;-68
2022/07/11 01:23:59;;;;;;;;;3.33;3.33;;;;;22.42;44.81;101784.81;4977722;28;45779;-66
2022/07/11 01:26:25;;;;;;;;;1.33;1.33;;;;;22.43;45.33;101783.81;4977517;28;45293;-65
2022/07/11 01:28:52;;;;;;;;;1.33;1.33;;;;;22.35;45.22;101786.66;4976573;28;45328;-64
2022/07/11 01:31:18;;;;;;;;;1.00;1.00;;;;;22.37;45.11;101782.69;4978089;28;45211;-67
2022/07/11 01:33:44;;;;;;;;;2.33;1.67;;;;;22.36;45.29;101791.03;4976684;28;48506;-67
2022/07/11 01:36:09;;;;;;;;;2.33;2.00;;;;;22.10;45.26;101743.72;4978055;28;45222;-66
2022/07/11 01:38:36;;;;;;;;;2.00;2.00;;;;;22.36;45.17;101778.31;4977881;28;45371;-68
2022/07/11 01:41:01;;;;;;;;;5.67;4.33;;;;;22.36;45.33;101780.19;4978178;28;45285;-66
2022/07/11 01:43:27;;;;;;;;;3.00;2.00;;;;;22.34;45.26;101788.50;4977786;28;46459;-66
2022/07/11 01:45:53;;;;;;;;;3.67;2.00;;;;;22.25;45.40;101773.44;4977925;28;45251;-65
2022/07/11 01:48:19;;;;;;;;;2.67;2.67;;;;;22.28;45.32;101792.03;4978060;28;46034;-71
2022/07/11 01:50:45;;;;;;;;;2.00;2.00;;;;;22.26;45.44;101790.53;4995374;28;45640;-66
2022/07/11 01:53:11;;;;;;;;;2.00;2.00;;;;;21.90;45.52;101726.44;4995939;28;48195;-66
2022/07/11 01:55:36;;;;;;;;;2.00;2.00;;;;;21.98;44.99;101745.25;4997289;28;45372;-65
2022/07/11 01:58:02;;;;;;;;;1.00;1.00;;;;;22.11;45.63;101772.50;4995784;28;45277;-66
2022/07/11 02:00:27;;;;;;;;;2.00;1.00;;;;;22.17;45.27;101787.94;4996899;28;45230;-69
2022/07/11 02:02:53;;;;;;;;;1.00;1.00;;;;;22.13;45.46;101773.13;4995664;28;48168;-68
2022/07/11 02:05:18;;;;;;;;;3.67;2.67;;;;;22.14;45.45;101777.50;4996705;28;45445;-67
2022/07/11 02:10:29;;;;;;;;;1.67;1.33;;;;;22.07;45.58;101768.50;4997476;28;45463;-67
2022/07/11 02:12:55;;;;;;;;;1.33;1.33;;;;;22.13;45.25;101778.53;4997410;28;45836;-65
2022/07/11 02:15:21;;;;;;;;;2.00;2.00;;;;;22.10;45.53;101778.94;4997137;28;45365;-65
2022/07/11 02:17:46;;;;;;;;;3.33;2.00;;;;;21.55;45.88;101693.84;4996882;28;45425;-66
2022/07/11 02:20:11;;;;;;;;;1.00;1.00;;;;;22.01;45.41;101769.22;4982213;28;45483;-66
2022/07/11 02:22:37;;;;;;;;;1.00;1.00;;;;;22.11;45.26;101791.44;4977071;28;46174;-65
2022/07/11 02:25:02;;;;;;;;;1.00;1.00;;;;;22.11;45.25;101786.03;4975838;28;45684;-65
2022/07/11 02:27:28;;;;;;;;;2.33;2.33;;;;;22.15;45.45;101789.19;4977300;28;45407;-64
2022/07/11 02:29:53;;;;;;;;;4.00;3.00;;;;;21.77;45.43;101721.72;4977462;28;45254;-66
2022/07/11 02:32:18;;;;;;;;;2.00;2.00;;;;;22.17;45.67;101787.94;4976927;28;46436;-65
2022/07/11 02:34:44;;;;;;;;;2.00;2.00;;;;;21.58;45.55;101686.34;4975720;28;45345;-65
2022/07/11 02:37:09;;;;;;;;;2.00;2.00;;;;;22.10;45.16;101787.06;4977055;28;45257;-68
2022/07/11 02:39:34;;;;;;;;;1.00;1.00;;;;;22.01;45.62;101774.66;4977385;28;45296;-65
2022/07/11 02:42:00;;;;;;;;;2.00;1.00;;;;;21.74;45.75;101732.94;4976883;28;45345;-65
2022/07/11 02:44:25;;;;;;;;;2.00;2.00;;;;;21.86;45.70;101755.78;4977175;28;45298;-67
2022/07/11 02:46:50;;;;;;;;;3.00;2.00;;;;;21.82;45.99;101756.34;4977129;28;45636;-66
2022/07/11 02:49:16;;;;;;;;;1.00;1.00;;;;;21.96;46.10;101790.63;4986298;28;45373;-65
2022/07/11 02:51:41;;;;;;;;;1.00;1.00;;;;;21.96;46.00;101785.22;4992599;28;46877;-68
2022/07/11 02:54:06;;;;;;;;;1.33;1.33;;;;;21.96;46.00;101785.22;4976972;28;45495;-67
2022/07/11 02:56:32;;;;;;;;;1.33;1.33;;;;;21.79;46.06;101757.56;4975760;28;45519;-66
2022/07/11 02:58:58;;;;;;;;;1.67;1.67;;;;;21.74;45.88;101746.50;4977261;28;45303;-67
2022/07/11 03:01:23;;;;;;;;;0.67;0.67;;;;;21.84;46.01;101768.69;4975245;28;47566;-66
2022/07/11 03:03:49;;;;;;;;;2.00;2.00;;;;;21.61;46.35;101731.97;4976810;28;45614;-67
2022/07/11 03:06:14;;;;;;;;;2.00;2.00;;;;;21.62;46.51;101744.47;4976915;28;45685;-66
2022/07/11 03:08:39;;;;;;;;;2.33;2.00;;;;;21.87;46.40;101780.97;4977112;28;45384;-66
2022/07/11 03:11:05;;;;;;;;;1.67;1.67;;;;;21.91;46.35;101776.00;4976635;28;46333;-65
2022/07/11 03:13:31;;;;;;;;;3.67;3.00;;;;;21.37;46.36;101696.13;4979983;28;45305;-65
2022/07/11 03:15:56;;;;;;;;;2.00;2.00;;;;;21.86;46.42;101777.44;4980173;28;45411;-66
2022/07/11 03:18:22;;;;;;;;;1.67;1.67;;;;;21.80;46.42;101763.81;4980861;28;45474;-65
2022/07/11 03:20:47;;;;;;;;;1.67;1.67;;;;;21.81;46.30;101765.50;4999604;28;45823;-65
2022/07/11 03:23:12;;;;;;;;;0.00;0.00;;;;;21.81;46.76;101779.03;4998378;28;46002;-65
2022/07/11 03:25:39;;;;;;;;;3.33;2.00;;;;;21.73;46.44;101762.91;4999578;28;45385;-65
2022/07/11 03:28:04;;;;;;;;;3.00;2.33;;;;;21.14;46.74;101673.81;4999088;28;45390;-65
2022/07/11 03:30:29;;;;;;;;;2.00;2.00;;;;;21.53;46.86;101750.00;4999366;28;46447;-67
2022/07/11 03:32:55;;;;;;;;;2.67;2.67;;;;;21.63;46.73;101762.41;4999290;28;45392;-66
2022/07/11 03:38:04;;;;;;;;;3.33;1.67;;;;;21.74;47.03;101778.13;4999608;28;45372;-66
2022/07/11 03:40:29;;;;;;;;;1.33;1.33;;;;;21.74;46.87;101773.56;4999202;28;46522;-66
2022/07/11 03:42:54;;;;;;;;;2.00;2.00;;;;;21.74;46.99;101778.13;4999047;28;45288;-66
2022/07/11 03:45:20;;;;;;;;;1.33;1.00;;;;;21.51;47.01;101740.41;4999241;28;45352;-66
2022/07/11 03:47:47;;;;;;;;;2.00;2.00;;;;;21.70;47.31;101785.81;4999607;28;45428;-66
2022/07/11 03:50:13;;;;;;;;;0.67;0.67;;;;;21.23;47.16;101711.38;4982652;28;45961;-65
2022/07/11 03:52:38;;;;;;;;;2.00;2.00;;;;;21.51;47.15;101753.94;4979466;28;45209;-66
2022/07/11 03:55:04;;;;;;;;;2.00;2.00;;;;;21.68;47.09;101777.03;4978147;28;45558;-66
2022/07/11 03:57:29;;;;;;;;;3.67;3.00;;;;;21.71;47.07;101782.06;4978062;28;45566;-66
2022/07/11 03:59:55;;;;;;;;;4.67;3.00;;;;;21.73;47.08;101781.88;4978911;28;46439;-66
2022/07/11 04:02:20;;;;;;;;;3.00;3.00;;;;;21.70;47.64;101779.56;4979223;28;45368;-65
2022/07/11 04:04:45;;;;;;;;;4.00;2.00;;;;;21.61;47.23;101759.03;4978100;28;45475;-64
2022/07/11 04:07:11;;;;;;;;;2.00;2.00;;;;;21.67;47.15;101763.69;4979520;28;45476;-65
2022/07/11 04:09:36;;;;;;;;;3.33;3.33;;;;;21.59;47.10;101758.38;4979165;28;45633;-66
2022/07/11 04:12:01;;;;;;;;;4.00;3.00;;;;;21.70;47.17;101776.84;4977935;28;45531;-65
2022/07/11 04:14:27;;;;;;;;;3.00;3.00;;;;;21.36;47.35;101718.81;4979270;28;45766;-66
2022/07/11 04:16:52;;;;;;;;;2.67;2.67;;;;;21.69;47.39;101769.75;4979373;28;45452;-67
2022/07/11 04:19:18;;;;;;;;;4.00;4.00;;;;;21.64;47.61;101772.22;4978885;28;46250;-66
2022/07/11 04:21:43;;;;;;;;;3.33;3.33;;;;;21.60;47.71;101766.31;4978943;28;45501;-66
2022/07/11 04:24:08;;;;;;;;;3.33;3.33;;;;;21.63;47.74;101773.25;4977254;28;45594;-66
2022/07/11 04:26:34;;;;;;;;;3.00;3.00;;;;;21.55;47.39;101749.81;4979328;28;45472;-67
2022/07/11 04:28:59;;;;;;;;;3.33;3.00;;;;;21.65;47.60;101766.59;4977256;28;47718;-67
2022/07/11 04:31:25;;;;;;;;;3.00;3.00;;;;;21.51;47.40;101749.38;4979367;28;45475;-68
2022/07/11 04:33:51;;;;;;;;;4.00;4.00;;;;;21.59;47.74;101761.09;4978743;28;45373;-67
2022/07/11 04:36:16;;;;;;;;;3.67;3.67;;;;;21.61;47.46;101767.16;4979066;28;45253;-65
2022/07/11 04:38:43;;;;;;;;;3.00;2.33;;;;;21.67;47.67;101779.94;4994081;28;45623;-66
2022/07/11 04:41:09;;;;;;;;;3.00;3.00;;;;;21.48;47.77;101768.69;4997738;28;45321;-67
2022/07/11 04:43:36;;;;;;;;;3.33;3.33;;;;;21.62;47.68;101794.03;4998386;28;45213;-68
2022/07/11 04:46:02;;;;;;;;;4.00;3.33;;;;;21.61;47.78;101797.75;4997078;28;45503;-67
2022/07/11 04:48:28;;;;;;;;;4.00;4.00;;;;;21.53;47.77;101778.94;4996564;28;48391;-67
2022/07/11 04:50:53;;;;;;;;;4.67;4.67;;;;;21.65;47.76;101804.50;4996494;28;45477;-67
2022/07/11 04:53:19;;;;;;;;;3.33;3.33;;;;;21.60;47.77;101781.72;4998095;28;45313;-67
2022/07/11 04:55:44;;;;;;;;;4.33;4.00;;;;;21.62;47.68;101782.34;4996698;28;45570;-68
2022/07/11 04:58:11;;;;;;;;;4.00;4.00;;;;;21.56;47.53;101779.41;4996500;28;48585;-66
2022/07/11 05:00:36;;;;;;;;;3.33;3.33;;;;;21.60;47.77;101781.72;4997854;28;45317;-67
2022/07/11 05:03:02;;;;;;;;;3.00;3.00;;;;;21.67;47.55;101801.59;4997813;28;45294;-66
2022/07/11 05:05:28;;;;;;;;;2.33;2.33;;;;;21.56;47.80;101779.41;5012799;28;45401;-67
2022/07/11 05:07:53;;;;;;;;;5.00;3.33;;;;;21.70;47.85;101812.03;4994536;28;46349;-66
2022/07/11 05:10:20;;;;;;;;;3.67;3.67;;;;;21.48;47.51;101768.69;5009384;28;45371;-67
2022/07/11 05:12:45;;;;;;;;;4.00;4.00;;;;;21.68;47.89;101792.44;4977924;28;45238;-68
2022/07/11 05:15:10;;;;;;;;;4.00;4.00;;;;;21.80;47.46;101804.41;4976907;28;45639;-68
2022/07/11 05:17:36;;;;;;;;;2.33;2.33;;;;;21.85;47.78;101802.84;4978030;28;45456;-66
2022/07/11 05:20:02;;;;;;;;;5.00;3.67;;;;;21.85;47.29;101810.13;4977774;28;46714;-67
2022/07/11 05:22:27;;;;;;;;;5.00;5.00;;;;;21.91;47.29;101811.22;4977800;28;45408;-66
2022/07/11 05:24:52;;;;;;;;;3.00;3.00;;;;;21.88;47.38;101814.31;4976648;28;45497;-66
2022/07/11 05:27:18;;;;;;;;;4.67;4.00;;;;;21.81;46.98;101797.97;4977633;28;46446;-66
2022/07/11 05:30:02;;;;;;;;;3.00;3.00;;;;;21.84;47.28;101808.44;4976681;28;46209;-66
2022/07/11 05:32:27;;;;;;;;;3.67;3.67;;;;;21.73;47.59;101790.81;4976443;28;45319;-67
2022/07/11 05:34:54;;;;;;;;;2.33;2.33;;;;;21.89;47.39;101833.06;4975619;28;45506;-67
2022/07/11 05:37:20;;;;;;;;;4.00;4.00;;;;;21.55;47.39;101764.19;4973253;28;47018;-64
2022/07/11 05:39:45;;;;;;;;;4.67;3.67;;;;;21.74;47.14;101795.22;4957995;28;45511;-69
2022/07/11 05:42:11;;;;;;;;;4.33;4.33;;;;;21.85;47.36;101815.53;4957967;28;45792;-66
2022/07/11 05:44:36;;;;;;;;;4.00;4.00;;;;;21.90;47.32;101823.91;4958182;28;45463;-66
2022/07/11 05:47:02;;;;;;;;;5.00;4.00;;;;;21.94;47.42;101825.19;4975605;28;45502;-67
2022/07/11 05:49:30;;;;;;;;;1.00;1.00;;;;;21.95;46.95;101821.47;4977335;28;45238;-66
2022/07/11 05:51:55;;;;;;;;;3.67;3.33;;;;;22.00;46.91;101824.41;4977536;28;45323;-67
2022/07/11 05:54:21;;;;;;;;;3.67;3.67;;;;;22.01;47.00;101814.44;4977364;28;45328;-68
2022/07/11 05:56:46;;;;;;;;;3.00;3.00;;;;;21.94;47.18;101803.53;4977096;28;45267;-67
2022/07/11 05:59:13;;;;;;;;;4.67;4.67;;;;;22.05;47.23;101816.59;4979650;28;45305;-67
2022/07/11 06:01:39;;;;;;;;;5.00;4.00;;;;;22.14;47.02;101820.84;4997346;28;45250;-66
2022/07/11 06:04:05;;;;;;;;;5.33;4.67;;;;;22.10;47.08;101802.47;4997122;28;45400;-65
2022/07/11 06:06:30;;;;;;;;;3.00;3.00;;;;;22.27;46.81;101803.91;4996957;28;45902;-67
2022/07/11 06:08:55;;;;;;;;;2.67;2.67;;;;;22.67;46.17;101821.31;4982574;28;45417;-68
2022/07/11 06:11:21;;;;;;;;;5.00;4.00;;;;;22.92;45.17;101796.47;4976660;28;45194;-66
2022/07/11 06:13:48;;;;;;;;;5.67;5.00;;;;;23.50;45.00;101829.50;4977403;28;45538;-68
2022/07/11 06:16:14;;;;;;;;;4.67;4.67;;;;;23.91;43.72;101819.44;4975720;28;46507;-66
2022/07/11 06:18:39;;;;;;;;;4.00;4.00;;;;;24.29;42.51;101828.94;4978164;28;45434;-67
2022/07/11 06:21:05;;;;;;;;;4.67;4.00;;;;;24.58;41.93;101820.34;4995641;28;45285;-66
2022/07/11 06:23:31;;;;;;;;;3.00;3.00;;;;;24.90;41.31;101815.91;4982294;28;45282;-68
2022/07/11 06:25:57;;;;;;;;;5.67;5.00;;;;;25.17;41.08;101831.13;4976958;28;45672;-67
2022/07/11 06:28:22;;;;;;;;;2.00;2.00;;;;;25.47;40.21;101833.34;4975568;28;45409;-68
2022/07/11 06:30:48;;;;;;;;;5.33;4.67;;;;;25.70;39.95;101835.56;4976994;28;45661;-65
2022/07/11 06:33:17;;;;;;;;;4.00;4.00;;;;;25.90;39.23;101825.41;4976964;28;45258;-68
2022/07/11 06:35:42;;;;;;;;;4.00;3.00;;;;;26.08;39.34;101827.38;4976574;28;45730;-65
2022/07/11 06:38:08;;;;;;;;;4.00;3.00;;;;;26.27;38.57;101818.22;4982399;28;45303;-65
2022/07/11 06:40:33;;;;;;;;;3.00;3.00;;;;;26.31;38.09;101792.16;4995809;28;46719;-65
2022/07/11 06:42:58;;;;;;;;;3.00;3.00;;;;;26.53;37.60;101819.91;4996676;28;45336;-65
2022/07/11 06:45:24;;;;;;;;;4.00;4.00;;;;;26.75;37.35;101824.94;4996464;28;46325;-68
2022/07/11 06:47:49;;;;;;;;;3.67;3.67;;;;;26.87;37.26;101825.88;4997069;28;45640;-67
2022/07/11 06:50:15;;;;;;;;;6.00;5.00;;;;;26.91;36.92;101800.66;4994441;28;45384;-66
2022/07/11 06:52:40;;;;;;;;;3.00;3.00;;;;;27.21;36.56;101811.66;4978593;28;45800;-67
2022/07/11 06:55:06;;;;;;;;;2.67;2.67;;;;;27.30;36.55;101803.16;4976791;28;47224;-69
2022/07/11 06:57:31;;;;;;;;;2.67;2.67;;;;;27.50;35.63;101801.84;4976248;28;45392;-68
2022/07/11 06:59:56;;;;;;;;;2.00;2.00;;;;;27.46;35.37;101767.88;4982041;28;45559;-68
2022/07/11 07:02:27;;;;;;;;;4.50;4.50;;;;;27.29;35.92;101728.63;4986281;28;45603;-69
2022/07/11 07:04:53;;;;;;;;;4.00;3.00;;;;;27.41;34.63;101717.72;4980772;28;46514;-66
2022/07/11 07:07:18;;;;;;;;;3.33;2.00;;;;;27.99;34.33;101815.47;4978954;28;46234;-68
2022/07/11 07:09:44;;;;;;;;;3.67;2.00;;;;;27.79;35.49;101792.00;4978210;28;45281;-68
2022/07/11 07:12:09;;;;;;;;;3.33;3.33;;;;;28.01;35.38;101816.91;4979873;28;45444;-67
2022/07/11 07:14:34;;;;;;;;;2.67;2.67;;;;;28.16;34.79;101817.28;4982993;28;45590;-69
2022/07/11 07:17:00;;;;;;;;;2.00;2.00;;;;;28.30;34.99;101814.38;4987237;28;45210;-67
2022/07/11 07:19:25;;;;;;;;;3.00;3.00;;;;;28.40;34.43;101793.56;4981488;28;45470;-69
2022/07/11 07:21:50;;;;;;;;;3.33;3.33;;;;;28.60;34.32;101814.28;4991608;28;45257;-68
2022/07/11 07:24:16;;;;;;;;;2.67;2.67;;;;;28.82;33.75;101828.19;4984257;28;47738;-66
2022/07/11 07:26:41;;;;;;;;;2.00;2.00;;;;;28.89;32.82;101818.00;4978156;28;46309;-67
2022/07/11 07:29:06;;;;;;;;;2.67;1.33;;;;;28.94;32.91;101807.16;4980077;28;45430;-67
2022/07/11 07:31:32;;;;;;;;;2.00;2.00;;;;;28.95;33.44;101801.44;4991454;28;45313;-69
2022/07/11 07:33:57;;;;;;;;;3.33;2.00;;;;;29.11;33.48;101808.09;4979255;28;45870;-67
2022/07/11 07:36:23;;;;;;;;;3.33;3.00;;;;;28.90;33.38;101770.38;4979225;28;45265;-67
2022/07/11 07:38:48;;;;;;;;;3.00;2.00;;;;;29.17;32.61;101812.59;4978367;28;45578;-68
2022/07/11 07:41:15;;;;;;;;;2.00;2.00;;;;;29.14;32.64;101832.25;4977620;28;45391;-68
2022/07/11 07:43:44;;;;;;;;;1.00;1.00;;;;;28.98;32.56;101820.13;4977447;28;45443;-67
2022/07/11 07:46:10;;;;;;;;;1.67;1.00;;;;;29.04;32.97;101818.34;4979126;28;45526;-67
2022/07/11 07:48:37;;;;;;;;;2.00;2.00;;;;;29.18;32.02;101827.94;4979374;28;45195;-68
2022/07/11 07:51:03;;;;;;;;;2.33;2.33;;;;;29.28;32.60;101830.91;4959600;28;45329;-66
2022/07/11 07:53:29;;;;;;;;;3.33;2.33;;;;;28.83;32.26;101734.06;4959328;28;46415;-68
2022/07/11 07:55:54;;;;;;;;;2.33;2.00;;;;;28.89;32.17;101741.34;4974413;28;45543;-68
2022/07/11 07:58:19;;;;;;;;;2.33;2.33;;;;;29.45;32.10;101824.66;4977937;28;45456;-69
2022/07/11 08:03:28;;;;;;;;;2.00;2.00;;;;;29.58;31.41;101827.13;4979019;28;45467;-68
2022/07/11 08:05:55;;;;;;;;;2.00;2.00;;;;;29.44;31.68;101776.44;4977471;28;45431;-68
2022/07/11 08:08:20;;;;;;;;;2.33;2.00;;;;;29.71;31.64;101806.84;4979919;28;45320;-66
2022/07/11 08:10:46;;;;;;;;;1.00;1.00;;;;;30.02;30.99;101822.75;4995453;28;45563;-67
2022/07/11 08:13:11;;;;;;;;;2.33;2.33;;;;;30.09;30.77;101833.59;4979533;28;46360;-68
2022/07/11 08:15:37;;;;;;;;;1.00;1.00;;;;;30.12;30.57;101828.44;4992557;28;45531;-67
2022/07/11 08:18:02;;;;;;;;;2.00;2.00;;;;;30.04;30.46;101828.88;4989267;28;45641;-70
2022/07/11 08:20:28;;;;;;;;;3.33;2.00;;;;;30.16;31.06;101823.28;4981512;28;45396;-68
2022/07/11 08:22:59;;;;;;;;;2.00;2.00;;;;;30.38;30.38;101805.00;4975785;28;45641;-68
2022/07/11 08:25:24;;;;;;;;;2.67;2.00;;;;;30.55;30.15;101777.56;4978164;28;45613;-67
2022/07/11 08:27:50;;;;;;;;;2.33;2.33;;;;;31.10;29.59;101804.97;4978898;28;45456;-72
2022/07/11 08:30:15;;;;;;;;;1.00;1.00;;;;;31.55;29.56;101797.56;4995749;28;45257;-67
2022/07/11 08:32:40;;;;;;;;;3.33;2.00;;;;;31.94;28.92;101801.00;4997749;28;45471;-67
2022/07/11 08:35:07;;;;;;;;;2.00;2.00;;;;;32.13;28.31;101765.69;4998214;28;45294;-67
2022/07/11 08:37:32;;;;;;;;;3.00;2.67;;;;;32.76;27.39;101791.47;4997982;28;45237;-67
2022/07/11 08:39:57;;;;;;;;;2.00;2.00;;;;;33.14;27.85;101771.84;4983624;28;45397;-71
2022/07/11 08:42:27;;;;;;;;;2.67;2.67;;;;;33.52;26.05;101769.78;4976075;28;48535;-68
2022/07/11 08:44:55;;;;;;;;;2.33;1.00;;;;;33.74;26.35;101764.00;4977718;28;45420;-67
2022/07/11 08:47:21;;;;;;;;;2.00;2.00;;;;;33.81;25.56;101745.25;4978242;28;45338;-68
2022/07/11 08:49:47;;;;;;;;;4.33;3.00;;;;;33.73;24.96;101704.44;4978976;28;45227;-66
2022/07/11 08:52:16;;;;;;;;;3.00;3.00;;;;;34.30;25.10;101761.28;4979293;28;47029;-68
2022/07/11 08:54:41;;;;;;;;;2.00;2.00;;;;;34.68;25.22;101774.47;4987021;28;45665;-67
2022/07/11 08:57:06;;;;;;;;;2.00;2.00;;;;;35.01;24.54;101766.63;4976726;28;45680;-68
2022/07/11 08:59:34;;;;;;;;;2.33;2.33;;;;;35.16;24.34;101762.97;4992939;28;45412;-69
2022/07/11 09:02:02;;;;;;;;;2.33;2.33;;;;;35.18;24.41;101766.28;5009611;28;48847;-68
2022/07/11 09:04:29;;;;;;;;;3.00;2.67;;;;;35.34;24.00;101765.94;4976147;28;45403;-69
2022/07/11 09:06:55;;;;;;;;;3.00;2.00;;;;;35.52;23.78;101747.03;4976142;28;45441;-67
2022/07/11 09:09:20;;;;;;;;;3.00;3.00;;;;;36.10;23.30;101761.81;4980906;28;45462;-69
2022/07/11 09:11:53;;;;;;;;;2.00;2.00;;;;;36.42;22.96;101771.47;4977915;28;45407;-69
2022/07/11 09:14:23;;;;;;;;;3.00;3.00;;;;;36.44;22.63;101761.78;4995109;28;45308;-68
2022/07/11 09:17:08;;;;;;;;;3.00;3.00;;;;;36.33;22.43;101738.06;4978045;28;45397;-68
2022/07/11 09:19:39;;;;;;;;;2.00;2.00;;;;;36.69;22.48;101734.91;4985139;28;45296;-68
2022/07/11 09:27:56;;;;;;;;;2.00;2.00;;;;;36.76;21.58;101747.25;4958317;28;45518;-69
2022/07/11 09:30:29;;;;;;;;;4.33;3.00;;;;;36.82;21.95;101731.41;4960103;28;45474;-66
2022/07/11 09:33:03;;;;;;;;;2.67;2.67;;;;;37.19;22.10;101760.31;4977282;28;45396;-65
2022/07/11 09:35:30;;;;;;;;;2.67;2.67;;;;;37.69;21.63;101767.94;4977597;28;45441;-64
2022/07/11 09:37:56;;;;;;;;;4.33;3.00;;;;;37.87;20.74;101709.94;4989369;28;45486;-68
2022/07/11 09:40:22;;;;;;;;;4.00;2.00;;;;;38.27;20.84;101742.56;4986021;28;45605;-68
2022/07/11 09:42:55;;;;;;;;;2.67;2.67;;;;;38.74;20.22;101746.09;4977100;28;46478;-69
2022/07/11 09:45:22;;;;;;;;;4.00;2.00;;;;;38.47;19.63;101629.38;4977362;28;45398;-68
2022/07/11 09:47:50;;;;;;;;;2.00;2.00;;;;;39.17;19.91;101693.72;4988566;28;45578;-67
2022/07/11 09:50:33;;;;;;;;;2.00;2.00;;;;;39.29;19.21;101745.22;4981219;28;45277;-67
2022/07/11 09:53:08;;;;;;;;;3.00;1.67;;;;;38.85;19.45;101736.41;4994404;28;45483;-69
2022/07/11 09:55:39;;;;;;;;;2.33;2.33;;;;;38.31;19.74;101732.47;4956351;28;45610;-68
2022/07/11 09:58:05;;;;;;;;;2.67;2.00;;;;;36.99;21.64;101742.00;4978839;28;45297;-68
2022/07/11 10:00:32;;;;;;;;;3.00;3.00;;;;;36.63;22.16;101752.69;4979379;28;45267;-68
2022/07/11 10:02:59;;;;;;;;;3.00;3.00;;;;;36.55;22.49;101727.28;4977622;28;46059;-69
2022/07/11 10:05:25;;;;;;;;;2.00;2.00;;;;;36.34;21.84;101734.19;5002414;28;45489;-68
2022/07/11 10:07:50;;;;;;;;;2.33;2.33;;;;;35.78;22.91;101725.50;4976986;28;45214;-70
2022/07/11 10:10:17;;;;;;;;;2.00;2.00;;;;;35.22;23.45;101723.94;4976888;28;45305;-69
2022/07/11 10:12:46;;;;;;;;;2.33;2.33;;;;;34.68;23.99;101746.84;4978153;28;46282;-70
2022/07/11 10:15:15;;;;;;;;;2.67;2.00;;;;;33.97;25.46;101733.13;4991513;28;45475;-67
2022/07/11 10:18:17;;;;;;;;;1.00;1.00;;;;;33.35;25.81;101739.69;4977520;28;45534;-67
2022/07/11 10:20:55;;;;;;;;;0.67;0.67;;;;;32.90;26.56;101732.91;4990552;28;45570;-68
2022/07/11 10:23:28;;;;;;;;;2.00;2.00;;;;;32.49;27.18;101740.09;4980027;28;47042;-67
2022/07/11 10:26:16;;;;;;;;;1.00;1.00;;;;;31.60;27.91;101668.41;4981015;28;45340;-70
2022/07/11 10:28:46;;;;;;;;;2.67;2.67;;;;;31.37;28.15;101677.81;4979110;28;45256;-70
2022/07/11 10:31:19;;;;;;;;;2.00;2.00;;;;;31.13;28.63;101710.25;4990683;28;45438;-70
2022/07/11 10:34:04;;;;;;;;;3.67;2.00;;;;;30.99;29.40;101739.19;4979145;28;46286;-75
2022/07/11 10:36:32;;;;;;;;;2.00;2.00;;;;;30.92;29.77;101753.13;4978282;28;45494;-73
2022/07/11 10:39:29;;;;;;;;;1.00;1.00;;;;;30.73;29.60;101746.28;4989719;28;45397;-68
2022/07/11 10:41:59;;;;;;;;;3.33;2.00;;;;;30.48;30.03;101731.09;4979965;28;45597;-67
2022/07/11 10:44:26;;;;;;;;;1.00;0.00;;;;;30.15;30.45;101731.13;4980117;28;46848;-67
2022/07/11 10:46:54;;;;;;;;;3.33;2.67;;;;;29.86;30.51;101731.19;4978745;28;45393;-68
2022/07/11 10:49:43;;;;;;;;;1.67;1.67;;;;;29.81;31.55;101753.00;4980188;28;45662;-68
2022/07/11 10:52:08;;;;;;;;;5.00;3.00;;;;;29.47;31.30;101743.91;4978945;28;45439;-68
2022/07/11 10:54:43;;;;;;;;;2.00;2.00;;;;;29.29;31.90;101738.59;4979781;28;46231;-66
2022/07/11 10:57:17;;;;;;;;;1.67;1.67;;;;;29.14;32.20;101750.09;4979918;28;45219;-65
2022/07/11 11:00:00;;;;;;;;;2.00;2.00;;;;;28.56;32.86;101695.44;4978518;28;45356;-68
2022/07/11 11:02:29;;;;;;;;;2.33;2.33;;;;;28.71;32.90;101729.44;4980090;28;45522;-67
2022/07/11 11:05:00;;;;;;;;;2.67;2.67;;;;;28.71;33.07;101740.41;4979664;28;45532;-67
2022/07/11 11:07:42;;;;;;;;;2.00;2.00;;;;;28.77;33.25;101753.09;4979565;28;45447;-68
2022/07/11 11:10:30;;;;;;;;;2.00;2.00;;;;;28.69;33.46;101733.50;4979354;28;45502;-67
2022/07/11 11:13:04;;;;;;;;;2.67;2.67;;;;;28.71;33.39;101734.91;4979566;28;45424;-68
2022/07/11 11:15:52;;;;;;;;;1.33;1.33;;;;;28.63;33.93;101743.50;4979282;28;47568;-67
2022/07/11 11:18:41;;;;;;;;;2.33;2.33;;;;;28.59;33.57;101728.63;4977910;28;45962;-68
2022/07/11 11:21:06;;;;;;;;;2.00;2.00;;;;;28.52;34.02;101727.94;4978176;28;45338;-67
2022/07/11 11:23:33;;;;;;;;;2.00;2.00;;;;;28.47;33.93;101730.56;4979785;28;45349;-66
2022/07/11 11:26:08;;;;;;;;;1.00;1.00;;;;;28.42;33.89;101724.94;4978236;28;46408;-67
2022/07/11 11:28:34;;;;;;;;;5.00;3.00;;;;;28.33;33.88;101705.34;4979399;28;45462;-66
2022/07/11 11:31:03;;;;;;;;;2.67;2.67;;;;;28.40;34.46;101721.63;4979721;28;45321;-64
2022/07/11 11:33:33;;;;;;;;;4.00;2.67;;;;;28.49;33.91;101731.16;4978248;28;45307;-67
2022/07/11 11:36:06;;;;;;;;;2.67;2.67;;;;;28.49;33.78;101722.94;4979316;28;45651;-67
2022/07/11 11:38:37;;;;;;;;;3.00;2.00;;;;;28.38;34.07;101690.94;4979059;28;45853;-66